National Weather Service United States Department of Commerce

SFO Marine Stratus Forecast System

Last refreshed: 1343Z Refresh page

Approach Clear

CWSU Oakland Forecast

LARGE OFFSHORE GRADIENTS/FLOW DOMINATE AND HAVE MIXED OUT MARINE LAYER

VAPS

Updated at 12:29Z

Confidence: HIGH


OVERNIGHT OFFSHORE GRADIENTS A ROBUST 8MB (MILLIBARS) - NO FORMATION OF STRATUS BUT FOR FAR SOCAL CSTL AREAS. SLIGHT SOUTHERLY SURGE BEGINNING FROM SOCAL WHICH MAY CREEP ITS WAY NORTHWARD TONIGHT. VFR TODAY. Sun Mar 29 12:29:16 2015


Details

Model Forecast

Approach clear at N/A GMT

Component models:

COBELN/A
LocalN/A
RegionalN/A
SatelliteN/A

Winter Mode Model quality indicator

Reliability reason:
Model quality: n/a

Forecasts return May 15


Probability of clearing by:

17Z 18Z 19Z 20Z
-- -- -- --

Details

WFO Monterey Discussion

Terminal:

Approach: Similar to the terminal.

Updated Sun Mar 29 12:00Z


Details

Satellite image
Click to loop

Observations

Time Temp Dew Wind Clouds Vis

SFO

Sky cover icon13355252CALM11 FEW  10

SMB

Sky cover icon1339N/AN/A1504CLR  10

Terminal Forecast

KSFO 291141Z 2912/3018 29009KT P6SM SKC
      FM292000 30012KT P6SM FEW250
      FM292300 28021G26KT P6SM FEW250
      FM300500 28015KT P6SM FEW250
      FM300700 28010KT P6SM FEW250
      FM301200 27009KT P6SM BKN010
					

More